createdAt,value
2023-02-27T00:00:19.627Z,-0.90
2023-02-27T00:02:51.507Z,-0.50
2023-02-27T00:10:14.717Z,-0.60
2023-02-27T00:12:42.176Z,-0.50
2023-02-27T00:15:14.304Z,-0.50
2023-02-27T00:17:41.174Z,-0.70
2023-02-27T00:20:11.620Z,-0.50
2023-02-27T00:22:39.766Z,-0.30
2023-02-27T00:25:07.830Z,-0.50
2023-02-27T00:37:24.614Z,-0.60
2023-02-27T00:39:51.489Z,-0.60
2023-02-27T00:44:45.732Z,-0.50
2023-02-27T00:47:12.547Z,0.30
2023-02-27T00:49:39.379Z,0.10
2023-02-27T00:57:00.707Z,-0.30
2023-02-27T01:04:22.139Z,-0.30
2023-02-27T01:06:49.015Z,-0.40
2023-02-27T01:11:43.176Z,-0.10
2023-02-27T01:19:05.019Z,-0.30
2023-02-27T01:21:31.862Z,-0.40
2023-02-27T01:38:43.483Z,-0.40
2023-02-27T01:41:10.489Z,-0.50
2023-02-27T01:43:56.122Z,-0.40
2023-02-27T01:46:23.837Z,0.20
2023-02-27T01:48:55.715Z,-0.50
2023-02-27T01:53:52.430Z,-0.40
2023-02-27T01:56:27.297Z,-0.30
2023-02-27T01:58:58.077Z,-0.50
2023-02-27T02:01:25.658Z,-0.20
2023-02-27T02:03:58.371Z,-0.30
2023-02-27T02:08:54.793Z,-0.20
2023-02-27T02:11:23.487Z,-0.20
2023-02-27T02:16:52.321Z,0.20
2023-02-27T02:19:50.999Z,0.10
2023-02-27T02:22:58.059Z,-0.10
2023-02-27T02:25:46.570Z,-0.30
2023-02-27T02:28:43.912Z,-0.50
2023-02-27T02:31:16.771Z,-0.60
2023-02-27T02:33:52.970Z,-0.60
2023-02-27T02:36:28.785Z,-0.60
2023-02-27T02:39:04.920Z,-0.70
2023-02-27T02:42:00.558Z,-0.40
2023-02-27T02:45:09.790Z,-0.70
2023-02-27T02:47:54.211Z,-1.40
2023-02-27T02:50:46.701Z,-0.60
2023-02-27T02:53:36.145Z,-0.30
2023-02-27T02:56:17.474Z,-0.70
2023-02-27T03:01:30.994Z,-0.60
2023-02-27T03:04:07.443Z,-0.40
2023-02-27T03:06:44.000Z,-0.30
2023-02-27T03:09:19.376Z,-0.40
2023-02-27T03:11:49.609Z,0.70
2023-02-27T03:14:30.672Z,-0.50
2023-02-27T03:17:00.442Z,-0.50
2023-02-27T03:19:37.874Z,-0.50
2023-02-27T03:22:12.323Z,-0.50
2023-02-27T03:27:08.623Z,-0.60
2023-02-27T03:29:52.935Z,-0.50
2023-02-27T03:32:45.897Z,-0.70
2023-02-27T03:35:13.220Z,-0.30
2023-02-27T03:38:05.080Z,-0.40
2023-02-27T03:40:38.009Z,-0.40
2023-02-27T03:43:17.998Z,-0.50
2023-02-27T03:45:58.675Z,-0.40
2023-02-27T03:48:25.964Z,-0.30
2023-02-27T03:53:43.045Z,-0.40
2023-02-27T03:56:13.577Z,0.00
2023-02-27T03:58:41.132Z,-0.40
2023-02-27T04:03:41.508Z,-0.60
2023-02-27T04:06:27.232Z,-1.00
2023-02-27T04:09:08.917Z,-0.70
2023-02-27T04:11:46.236Z,-0.90
2023-02-27T04:14:38.488Z,-1.10
2023-02-27T04:19:46.320Z,-0.70
2023-02-27T04:22:25.226Z,-0.20
2023-02-27T04:25:13.929Z,-0.50
2023-02-27T04:27:45.267Z,0.80
2023-02-27T04:30:38.131Z,0.50
2023-02-27T04:33:13.736Z,-0.70
2023-02-27T04:36:13.167Z,-0.80
2023-02-27T04:38:56.473Z,-0.80
2023-02-27T04:41:25.345Z,-0.80
2023-02-27T04:43:53.629Z,-0.70
2023-02-27T04:46:25.831Z,-0.80
2023-02-27T04:49:15.423Z,-0.70
2023-02-27T04:51:52.382Z,-0.50
2023-02-27T04:54:29.963Z,-0.50
2023-02-27T04:57:02.343Z,-0.50
2023-02-27T04:59:34.078Z,-0.50
2023-02-27T05:02:07.981Z,-0.60
2023-02-27T05:04:38.161Z,-0.60
2023-02-27T05:07:09.538Z,-0.30
2023-02-27T05:09:56.490Z,-0.40
2023-02-27T05:12:26.700Z,-0.50
2023-02-27T05:15:30.076Z,-0.30
2023-02-27T05:18:09.402Z,-0.30
2023-02-27T05:20:51.597Z,-0.30
2023-02-27T05:24:02.683Z,-0.10
2023-02-27T05:26:44.193Z,-0.30
2023-02-27T05:29:16.225Z,-0.40
2023-02-27T05:31:50.627Z,-0.60
2023-02-27T05:34:20.655Z,-0.70
2023-02-27T05:37:00.272Z,-0.70
2023-02-27T05:39:30.252Z,-0.90
2023-02-27T05:42:05.584Z,-0.70
2023-02-27T05:44:39.604Z,-0.60
2023-02-27T05:47:12.984Z,-0.60
2023-02-27T05:49:55.411Z,-0.70
2023-02-27T05:52:26.476Z,-0.70
2023-02-27T05:55:18.932Z,-0.60
2023-02-27T05:57:51.341Z,-0.70
2023-02-27T06:00:30.091Z,-1.00
2023-02-27T06:02:57.001Z,-1.00
2023-02-27T06:05:25.988Z,-1.00
2023-02-27T06:10:22.277Z,-0.70
2023-02-27T06:12:49.146Z,-0.90
2023-02-27T06:15:17.719Z,-0.50
2023-02-27T06:17:44.703Z,-0.30
2023-02-27T06:22:39.142Z,-0.80
2023-02-27T06:25:06.451Z,-0.60
2023-02-27T06:30:00.898Z,-0.60
2023-02-27T06:37:22.358Z,0.10
2023-02-27T06:42:16.890Z,0.10
2023-02-27T07:01:55.678Z,1.00
2023-02-27T07:07:34.079Z,1.60
2023-02-27T07:12:05.069Z,2.50
2023-02-27T07:19:32.372Z,2.70
2023-02-27T07:21:59.667Z,2.30
2023-02-27T07:31:49.049Z,3.50
2023-02-27T07:36:43.593Z,3.10
2023-02-27T07:39:12.225Z,3.70
2023-02-27T07:51:31.397Z,3.30
2023-02-27T07:56:27.117Z,2.80
2023-02-27T08:01:21.527Z,3.70
2023-02-27T08:03:48.353Z,5.10
2023-02-27T08:06:15.217Z,4.80
2023-02-27T08:21:18.418Z,6.50
2023-02-27T08:45:53.224Z,7.30
2023-02-27T08:55:42.798Z,7.20
2023-02-27T08:58:10.329Z,6.40
2023-02-27T09:05:35.316Z,6.30
2023-02-27T09:08:02.809Z,5.40
2023-02-27T09:15:24.406Z,5.80
2023-02-27T09:22:45.929Z,4.40
2023-02-27T09:30:08.252Z,2.90
2023-02-27T09:35:02.688Z,3.40
2023-02-27T09:37:29.521Z,3.30
2023-02-27T09:39:56.352Z,3.50
2023-02-27T09:42:28.096Z,3.70
2023-02-27T09:45:05.490Z,3.80
2023-02-27T09:47:48.111Z,3.50
2023-02-27T09:50:27.137Z,3.60
2023-02-27T09:52:54.373Z,2.40
2023-02-27T09:55:22.879Z,2.90
2023-02-27T09:58:10.493Z,2.80
2023-02-27T10:00:48.719Z,2.90
2023-02-27T10:03:24.609Z,3.30
2023-02-27T10:06:13.525Z,3.70
2023-02-27T10:08:58.984Z,3.90
2023-02-27T10:11:44.235Z,3.70
2023-02-27T10:14:50.852Z,3.90
2023-02-27T10:17:31.539Z,3.40
2023-02-27T10:20:04.766Z,3.50
2023-02-27T10:22:36.216Z,4.30
2023-02-27T10:25:29.922Z,4.20
2023-02-27T10:28:08.961Z,3.70
2023-02-27T10:30:36.267Z,3.50
2023-02-27T10:33:15.266Z,3.60
2023-02-27T10:35:45.110Z,4.30
2023-02-27T10:38:26.663Z,4.70
2023-02-27T10:40:56.509Z,3.70
2023-02-27T10:48:18.677Z,1.00
2023-02-27T10:50:53.223Z,3.80
2023-02-27T10:53:28.288Z,3.10
2023-02-27T10:56:06.170Z,2.80
2023-02-27T10:58:36.282Z,2.90
2023-02-27T11:01:07.088Z,2.70
2023-02-27T11:03:39.925Z,2.60
2023-02-27T11:06:24.846Z,2.80
2023-02-27T11:09:13.567Z,2.90
2023-02-27T11:14:30.970Z,2.90
2023-02-27T11:17:00.395Z,2.50
2023-02-27T11:19:33.892Z,2.60
2023-02-27T11:24:29.107Z,2.60
2023-02-27T11:27:05.418Z,2.50
2023-02-27T11:29:34.375Z,2.70
2023-02-27T11:32:13.443Z,2.60
2023-02-27T11:34:47.746Z,2.50
2023-02-27T11:37:33.000Z,2.20
2023-02-27T11:40:13.355Z,2.50
2023-02-27T11:42:50.939Z,2.40
2023-02-27T11:46:13.272Z,2.20
2023-02-27T11:48:18.652Z,2.40
2023-02-27T11:51:10.663Z,2.70
2023-02-27T11:54:05.115Z,2.90
2023-02-27T11:56:39.798Z,2.50
2023-02-27T11:59:32.137Z,2.60
2023-02-27T12:02:14.394Z,3.30
2023-02-27T12:05:06.714Z,4.00
2023-02-27T12:07:54.206Z,3.80
2023-02-27T12:10:29.033Z,4.00
2023-02-27T12:15:45.078Z,5.20
2023-02-27T12:20:45.788Z,9.30
2023-02-27T12:23:26.114Z,9.20
2023-02-27T12:26:01.772Z,8.20
2023-02-27T12:28:43.864Z,6.60
2023-02-27T12:34:01.062Z,5.10
2023-02-27T12:38:55.336Z,4.30
2023-02-27T12:41:36.693Z,4.00
2023-02-27T12:44:42.463Z,4.00
2023-02-27T12:50:03.569Z,3.10
2023-02-27T12:52:33.827Z,3.30
2023-02-27T12:55:10.215Z,3.20
2023-02-27T12:58:12.085Z,3.00
2023-02-27T13:01:00.151Z,2.60
2023-02-27T13:03:44.997Z,2.70
2023-02-27T13:06:20.358Z,2.60
2023-02-27T13:09:09.534Z,2.60
2023-02-27T13:12:01.810Z,2.70
2023-02-27T13:14:46.125Z,2.40
2023-02-27T13:17:33.997Z,2.30
2023-02-27T13:20:16.863Z,2.50
2023-02-27T13:23:13.224Z,2.50
2023-02-27T13:25:42.212Z,2.40
2023-02-27T13:28:15.215Z,2.10
2023-02-27T13:30:52.940Z,2.30
2023-02-27T13:33:33.295Z,2.20
2023-02-27T13:36:14.839Z,2.50
2023-02-27T13:38:50.536Z,3.30
2023-02-27T13:41:20.476Z,2.80
2023-02-27T13:43:52.373Z,2.90
2023-02-27T13:46:23.995Z,2.80
2023-02-27T13:48:53.875Z,2.70
2023-02-27T13:51:36.279Z,2.50
2023-02-27T13:54:15.426Z,2.20
2023-02-27T13:56:51.327Z,2.00
2023-02-27T13:59:31.994Z,2.40
2023-02-27T14:02:03.700Z,2.70
2023-02-27T14:04:36.380Z,2.40
2023-02-27T14:07:11.294Z,2.20
2023-02-27T14:09:41.556Z,2.40
2023-02-27T14:12:42.608Z,2.60
2023-02-27T14:15:35.960Z,2.60
2023-02-27T14:18:14.227Z,2.60
2023-02-27T14:23:21.260Z,2.30
2023-02-27T14:25:55.586Z,1.80
2023-02-27T14:28:48.316Z,2.10
2023-02-27T14:31:28.438Z,2.10
2023-02-27T14:33:58.928Z,0.70
2023-02-27T14:36:29.526Z,2.40
2023-02-27T14:39:01.386Z,2.70
2023-02-27T14:42:05.442Z,2.50
2023-02-27T14:44:43.682Z,2.50
2023-02-27T14:47:35.872Z,2.30
2023-02-27T14:50:05.707Z,2.10
2023-02-27T14:52:41.609Z,1.90
2023-02-27T14:55:27.893Z,1.90
2023-02-27T15:00:52.568Z,1.80
2023-02-27T15:03:29.333Z,1.70
2023-02-27T15:06:02.350Z,1.60
2023-02-27T15:08:38.061Z,2.00
2023-02-27T15:13:39.207Z,2.10
2023-02-27T15:16:42.762Z,2.00
2023-02-27T15:19:15.286Z,1.90
2023-02-27T15:21:50.166Z,2.10
2023-02-27T15:24:24.470Z,2.00
2023-02-27T15:26:57.050Z,1.80
2023-02-27T15:29:29.974Z,1.80
2023-02-27T15:34:24.216Z,1.50
2023-02-27T15:36:54.580Z,-2.40
2023-02-27T15:39:26.639Z,1.40
2023-02-27T15:42:01.092Z,1.50
2023-02-27T15:44:35.291Z,1.40
2023-02-27T15:52:13.506Z,1.90
2023-02-27T15:54:46.427Z,1.80
2023-02-27T15:57:14.304Z,1.80
2023-02-27T15:59:43.163Z,1.80
2023-02-27T16:02:30.037Z,1.30
2023-02-27T16:07:26.082Z,1.40
2023-02-27T16:10:00.860Z,1.20
2023-02-27T16:12:37.044Z,1.20
2023-02-27T16:15:23.069Z,2.60
2023-02-27T16:18:07.995Z,1.40
2023-02-27T16:20:42.070Z,1.30
2023-02-27T16:23:28.397Z,1.20
2023-02-27T16:26:02.998Z,1.30
2023-02-27T16:28:39.954Z,1.50
2023-02-27T16:31:23.937Z,1.40
2023-02-27T16:33:51.983Z,1.30
2023-02-27T16:36:24.786Z,1.20
2023-02-27T16:41:20.505Z,0.90
2023-02-27T16:43:48.394Z,0.70
2023-02-27T16:46:20.379Z,1.10
2023-02-27T16:48:51.075Z,0.80
2023-02-27T16:51:23.350Z,1.00
2023-02-27T16:53:54.265Z,0.80
2023-02-27T16:56:35.783Z,0.80
2023-02-27T16:59:04.374Z,1.00
2023-02-27T17:06:28.993Z,1.40
2023-02-27T17:13:52.397Z,1.10
2023-02-27T17:21:13.712Z,1.00
2023-02-27T17:26:07.877Z,0.80
2023-02-27T17:33:31.382Z,0.70
2023-02-27T17:36:08.585Z,0.90
2023-02-27T17:38:36.363Z,0.60
2023-02-27T17:41:10.868Z,0.80
2023-02-27T17:43:38.326Z,1.40
2023-02-27T17:46:09.370Z,0.90
2023-02-27T17:48:38.283Z,1.00
2023-02-27T17:51:07.062Z,1.00
2023-02-27T17:53:35.440Z,4.00
2023-02-27T17:58:29.861Z,1.70
2023-02-27T18:01:04.721Z,0.80
2023-02-27T18:10:55.022Z,0.60
2023-02-27T18:15:50.819Z,0.60
2023-02-27T18:18:18.569Z,1.00
2023-02-27T18:23:14.191Z,1.30
2023-02-27T18:25:41.074Z,1.40
2023-02-27T18:30:38.324Z,0.90
2023-02-27T18:42:57.420Z,0.90
2023-02-27T18:45:24.754Z,0.90
2023-02-27T18:50:20.041Z,1.00
2023-02-27T18:52:47.384Z,0.80
2023-02-27T18:55:15.232Z,0.70
2023-02-27T19:00:10.120Z,0.70
2023-02-27T19:05:11.158Z,0.50
2023-02-27T19:07:38.989Z,0.30
2023-02-27T19:10:07.854Z,0.60
2023-02-27T19:15:02.454Z,0.80
2023-02-27T19:19:56.732Z,1.00
2023-02-27T19:24:59.289Z,1.00
2023-02-27T19:27:26.149Z,0.90
2023-02-27T19:32:21.449Z,0.70
2023-02-27T19:34:48.426Z,0.80
2023-02-27T19:42:11.523Z,0.70
2023-02-27T19:49:34.909Z,0.90
2023-02-27T19:56:57.533Z,0.80
2023-02-27T19:59:24.790Z,0.60
2023-02-27T20:01:52.364Z,0.60
2023-02-27T20:06:47.853Z,0.50
2023-02-27T20:09:17.289Z,0.50
2023-02-27T20:11:45.650Z,0.40
2023-02-27T20:14:14.182Z,0.50
2023-02-27T20:16:41.962Z,0.30
2023-02-27T20:19:13.716Z,0.70
2023-02-27T20:26:40.242Z,0.10
2023-02-27T20:29:11.685Z,0.20
2023-02-27T20:31:40.498Z,0.10
2023-02-27T20:34:11.026Z,0.30
2023-02-27T20:36:39.576Z,0.20
2023-02-27T20:39:07.392Z,0.20
2023-02-27T20:41:35.375Z,0.10
2023-02-27T20:46:30.551Z,0.40
2023-02-27T20:49:02.887Z,0.20
2023-02-27T20:51:35.222Z,0.20
2023-02-27T20:54:07.824Z,0.20
2023-02-27T20:56:38.354Z,0.30
2023-02-27T20:59:07.220Z,0.20
2023-02-27T21:01:36.246Z,0.20
2023-02-27T21:09:01.486Z,0.10
2023-02-27T21:11:30.717Z,0.30
2023-02-27T21:14:00.027Z,-0.10
2023-02-27T21:18:56.826Z,-0.10
2023-02-27T21:21:29.831Z,0.00
2023-02-27T21:23:57.653Z,-0.10
2023-02-27T21:29:14.065Z,-1.50
2023-02-27T21:31:42.271Z,0.20
2023-02-27T21:34:13.564Z,0.00
2023-02-27T21:36:42.802Z,0.00
2023-02-27T21:39:13.923Z,0.00
2023-02-27T21:41:41.429Z,0.30
2023-02-27T21:44:09.927Z,-0.10
2023-02-27T21:49:04.393Z,-0.10
2023-02-27T21:51:40.053Z,-0.20
2023-02-27T21:54:09.546Z,0.00
2023-02-27T21:56:36.809Z,0.20
2023-02-27T22:06:32.342Z,-0.20
2023-02-27T22:09:01.908Z,-0.30
2023-02-27T22:11:31.189Z,-0.50
2023-02-27T22:21:24.175Z,-0.20
2023-02-27T22:26:22.139Z,-0.10
2023-02-27T22:31:24.899Z,0.30
2023-02-27T22:33:54.249Z,0.10
2023-02-27T22:36:26.341Z,-0.70
2023-02-27T22:41:31.298Z,-0.20
2023-02-27T22:43:59.875Z,-0.30
2023-02-27T22:46:36.341Z,-0.50
2023-02-27T22:49:23.489Z,-0.40
2023-02-27T22:51:52.057Z,-0.10
2023-02-27T22:54:21.315Z,-0.30
2023-02-27T22:56:51.062Z,-0.60
2023-02-27T23:01:46.017Z,-0.30
2023-02-27T23:06:40.899Z,-0.60
2023-02-27T23:09:12.466Z,-0.50
2023-02-27T23:14:07.026Z,-1.40
2023-02-27T23:16:34.343Z,-0.30
2023-02-27T23:21:34.823Z,-0.50
2023-02-27T23:24:08.472Z,-0.50
2023-02-27T23:26:37.941Z,-0.60
2023-02-27T23:29:05.996Z,-0.90
2023-02-27T23:31:35.304Z,-1.00
2023-02-27T23:34:05.827Z,-1.00
2023-02-27T23:36:37.492Z,-1.30
2023-02-27T23:39:05.986Z,-1.40
2023-02-27T23:41:33.176Z,-1.30
2023-02-27T23:46:46.502Z,-1.30
2023-02-27T23:56:35.571Z,-1.20
2023-02-27T23:59:05.846Z,-1.00
